sensor_id;sensor_type;location;lat;lon;timestamp;P1;durP1;ratioP1;P2;durP2;ratioP2
70667;SDS011;58242;51.250;-1.118;2023-01-05T00:01:42;20.05;;;6.88;;
70667;SDS011;58242;51.250;-1.118;2023-01-05T00:04:07;16.15;;;5.57;;
70667;SDS011;58242;51.250;-1.118;2023-01-05T00:06:33;18.52;;;5.75;;
70667;SDS011;58242;51.250;-1.118;2023-01-05T00:08:59;17.80;;;6.63;;
70667;SDS011;58242;51.250;-1.118;2023-01-05T00:11:26;18.40;;;6.32;;
70667;SDS011;58242;51.250;-1.118;2023-01-05T00:14:14;21.83;;;6.18;;
70667;SDS011;58242;51.250;-1.118;2023-01-05T00:17:00;17.80;;;5.72;;
70667;SDS011;58242;51.250;-1.118;2023-01-05T00:19:44;15.65;;;5.60;;
70667;SDS011;58242;51.250;-1.118;2023-01-05T00:22:28;24.30;;;7.32;;
70667;SDS011;58242;51.250;-1.118;2023-01-05T00:24:57;19.73;;;6.13;;
70667;SDS011;58242;51.250;-1.118;2023-01-05T00:27:23;16.65;;;6.18;;
70667;SDS011;58242;51.250;-1.118;2023-01-05T00:29:49;16.17;;;5.00;;
70667;SDS011;58242;51.250;-1.118;2023-01-05T00:32:14;11.52;;;5.38;;
70667;SDS011;58242;51.250;-1.118;2023-01-05T00:34:40;14.75;;;5.90;;
70667;SDS011;58242;51.250;-1.118;2023-01-05T00:37:05;19.65;;;5.57;;
70667;SDS011;58242;51.250;-1.118;2023-01-05T00:39:30;18.25;;;6.63;;
70667;SDS011;58242;51.250;-1.118;2023-01-05T00:41:55;16.30;;;5.03;;
70667;SDS011;58242;51.250;-1.118;2023-01-05T00:44:21;18.13;;;5.32;;
70667;SDS011;58242;51.250;-1.118;2023-01-05T00:46:46;15.45;;;5.80;;
70667;SDS011;58242;51.250;-1.118;2023-01-05T00:49:11;21.42;;;6.28;;
70667;SDS011;58242;51.250;-1.118;2023-01-05T00:51:36;15.77;;;5.45;;
70667;SDS011;58242;51.250;-1.118;2023-01-05T00:54:02;14.63;;;5.32;;
70667;SDS011;58242;51.250;-1.118;2023-01-05T00:56:27;14.57;;;5.15;;
70667;SDS011;58242;51.250;-1.118;2023-01-05T00:58:52;17.23;;;6.05;;
70667;SDS011;58242;51.250;-1.118;2023-01-05T01:01:19;15.30;;;5.40;;
70667;SDS011;58242;51.250;-1.118;2023-01-05T01:03:45;11.65;;;5.25;;
70667;SDS011;58242;51.250;-1.118;2023-01-05T01:06:11;13.43;;;5.22;;
70667;SDS011;58242;51.250;-1.118;2023-01-05T01:08:37;14.77;;;5.30;;
70667;SDS011;58242;51.250;-1.118;2023-01-05T01:11:03;13.05;;;5.50;;
70667;SDS011;58242;51.250;-1.118;2023-01-05T01:13:29;11.90;;;4.40;;
70667;SDS011;58242;51.250;-1.118;2023-01-05T01:15:55;16.50;;;5.82;;
70667;SDS011;58242;51.250;-1.118;2023-01-05T01:18:20;20.70;;;5.60;;
70667;SDS011;58242;51.250;-1.118;2023-01-05T01:20:47;13.80;;;5.03;;
70667;SDS011;58242;51.250;-1.118;2023-01-05T01:23:12;16.00;;;5.28;;
70667;SDS011;58242;51.250;-1.118;2023-01-05T01:25:37;14.80;;;5.38;;
70667;SDS011;58242;51.250;-1.118;2023-01-05T01:28:03;23.25;;;6.10;;
70667;SDS011;58242;51.250;-1.118;2023-01-05T01:30:29;17.02;;;5.75;;
70667;SDS011;58242;51.250;-1.118;2023-01-05T01:32:54;15.15;;;6.68;;
70667;SDS011;58242;51.250;-1.118;2023-01-05T01:35:19;12.07;;;5.18;;
70667;SDS011;58242;51.250;-1.118;2023-01-05T01:37:45;15.35;;;5.75;;
70667;SDS011;58242;51.250;-1.118;2023-01-05T01:40:10;14.32;;;4.85;;
70667;SDS011;58242;51.250;-1.118;2023-01-05T01:42:37;13.85;;;4.88;;
70667;SDS011;58242;51.250;-1.118;2023-01-05T01:45:14;19.23;;;5.95;;
70667;SDS011;58242;51.250;-1.118;2023-01-05T01:47:48;13.40;;;5.32;;
70667;SDS011;58242;51.250;-1.118;2023-01-05T01:50:19;9.85;;;5.05;;
70667;SDS011;58242;51.250;-1.118;2023-01-05T01:52:46;15.63;;;5.63;;
70667;SDS011;58242;51.250;-1.118;2023-01-05T01:55:14;17.77;;;5.50;;
70667;SDS011;58242;51.250;-1.118;2023-01-05T01:57:41;13.23;;;5.60;;
70667;SDS011;58242;51.250;-1.118;2023-01-05T02:00:09;18.10;;;5.78;;
70667;SDS011;58242;51.250;-1.118;2023-01-05T02:02:35;16.42;;;5.95;;
70667;SDS011;58242;51.250;-1.118;2023-01-05T02:05:02;15.07;;;5.10;;
70667;SDS011;58242;51.250;-1.118;2023-01-05T02:07:36;18.90;;;5.55;;
70667;SDS011;58242;51.250;-1.118;2023-01-05T02:10:03;18.65;;;6.15;;
70667;SDS011;58242;51.250;-1.118;2023-01-05T02:12:33;12.80;;;5.28;;
70667;SDS011;58242;51.250;-1.118;2023-01-05T02:15:14;15.02;;;5.40;;
70667;SDS011;58242;51.250;-1.118;2023-01-05T02:23:26;19.73;;;5.72;;
70667;SDS011;58242;51.250;-1.118;2023-01-05T02:32:21;11.23;;;5.07;;
70667;SDS011;58242;51.250;-1.118;2023-01-05T02:37:40;10.05;;;4.95;;
70667;SDS011;58242;51.250;-1.118;2023-01-05T02:40:29;13.75;;;4.50;;
70667;SDS011;58242;51.250;-1.118;2023-01-05T02:43:00;12.98;;;5.22;;
70667;SDS011;58242;51.250;-1.118;2023-01-05T02:45:27;16.90;;;5.93;;
70667;SDS011;58242;51.250;-1.118;2023-01-05T02:47:52;11.70;;;5.20;;
70667;SDS011;58242;51.250;-1.118;2023-01-05T02:50:31;16.60;;;5.93;;
70667;SDS011;58242;51.250;-1.118;2023-01-05T02:53:06;11.02;;;4.85;;
70667;SDS011;58242;51.250;-1.118;2023-01-05T02:55:40;13.82;;;5.35;;
70667;SDS011;58242;51.250;-1.118;2023-01-05T02:58:10;16.40;;;5.38;;
70667;SDS011;58242;51.250;-1.118;2023-01-05T03:00:45;14.63;;;5.38;;
70667;SDS011;58242;51.250;-1.118;2023-01-05T03:03:24;10.65;;;5.43;;
70667;SDS011;58242;51.250;-1.118;2023-01-05T03:05:58;17.35;;;5.25;;
70667;SDS011;58242;51.250;-1.118;2023-01-05T03:08:28;9.85;;;4.68;;
70667;SDS011;58242;51.250;-1.118;2023-01-05T03:11:02;15.77;;;5.35;;
70667;SDS011;58242;51.250;-1.118;2023-01-05T03:14:00;11.38;;;4.30;;
70667;SDS011;58242;51.250;-1.118;2023-01-05T03:19:06;16.13;;;5.95;;
70667;SDS011;58242;51.250;-1.118;2023-01-05T03:21:55;13.73;;;5.35;;
70667;SDS011;58242;51.250;-1.118;2023-01-05T03:24:41;13.82;;;4.78;;
70667;SDS011;58242;51.250;-1.118;2023-01-05T03:27:26;21.70;;;6.25;;
70667;SDS011;58242;51.250;-1.118;2023-01-05T03:30:11;10.13;;;5.07;;
70667;SDS011;58242;51.250;-1.118;2023-01-05T03:32:59;16.98;;;5.97;;
70667;SDS011;58242;51.250;-1.118;2023-01-05T03:35:51;13.32;;;5.07;;
70667;SDS011;58242;51.250;-1.118;2023-01-05T03:38:40;12.77;;;5.70;;
70667;SDS011;58242;51.250;-1.118;2023-01-05T03:41:08;10.30;;;5.00;;
70667;SDS011;58242;51.250;-1.118;2023-01-05T03:43:35;12.68;;;5.72;;
70667;SDS011;58242;51.250;-1.118;2023-01-05T03:46:01;17.00;;;6.82;;
70667;SDS011;58242;51.250;-1.118;2023-01-05T03:48:34;20.17;;;6.05;;
70667;SDS011;58242;51.250;-1.118;2023-01-05T03:51:00;8.48;;;4.43;;
70667;SDS011;58242;51.250;-1.118;2023-01-05T03:53:25;14.60;;;5.93;;
70667;SDS011;58242;51.250;-1.118;2023-01-05T03:55:50;13.32;;;5.55;;
70667;SDS011;58242;51.250;-1.118;2023-01-05T03:58:16;18.67;;;6.00;;
70667;SDS011;58242;51.250;-1.118;2023-01-05T04:00:41;15.73;;;6.28;;
70667;SDS011;58242;51.250;-1.118;2023-01-05T04:03:06;10.02;;;5.07;;
70667;SDS011;58242;51.250;-1.118;2023-01-05T04:05:34;11.98;;;5.13;;
70667;SDS011;58242;51.250;-1.118;2023-01-05T04:07:59;10.38;;;4.20;;
70667;SDS011;58242;51.250;-1.118;2023-01-05T04:10:25;14.05;;;4.97;;
70667;SDS011;58242;51.250;-1.118;2023-01-05T04:12:50;8.70;;;4.30;;
70667;SDS011;58242;51.250;-1.118;2023-01-05T04:15:15;13.70;;;4.93;;
70667;SDS011;58242;51.250;-1.118;2023-01-05T04:17:41;17.55;;;5.38;;
70667;SDS011;58242;51.250;-1.118;2023-01-05T04:20:06;13.63;;;4.82;;
70667;SDS011;58242;51.250;-1.118;2023-01-05T04:22:32;11.10;;;3.75;;
70667;SDS011;58242;51.250;-1.118;2023-01-05T04:24:57;8.68;;;4.00;;
70667;SDS011;58242;51.250;-1.118;2023-01-05T04:27:22;8.43;;;4.22;;
70667;SDS011;58242;51.250;-1.118;2023-01-05T04:29:48;5.53;;;3.50;;
70667;SDS011;58242;51.250;-1.118;2023-01-05T04:32:13;10.20;;;4.28;;
70667;SDS011;58242;51.250;-1.118;2023-01-05T04:34:38;4.85;;;3.42;;
70667;SDS011;58242;51.250;-1.118;2023-01-05T04:37:04;6.43;;;3.20;;
70667;SDS011;58242;51.250;-1.118;2023-01-05T04:39:29;6.55;;;3.45;;
70667;SDS011;58242;51.250;-1.118;2023-01-05T04:41:54;4.55;;;3.67;;
70667;SDS011;58242;51.250;-1.118;2023-01-05T04:44:20;3.55;;;3.25;;
70667;SDS011;58242;51.250;-1.118;2023-01-05T04:46:45;6.18;;;3.75;;
70667;SDS011;58242;51.250;-1.118;2023-01-05T04:49:10;3.45;;;3.05;;
70667;SDS011;58242;51.250;-1.118;2023-01-05T04:51:36;13.05;;;4.72;;
70667;SDS011;58242;51.250;-1.118;2023-01-05T04:54:01;13.25;;;4.30;;
70667;SDS011;58242;51.250;-1.118;2023-01-05T04:56:26;5.72;;;3.55;;
70667;SDS011;58242;51.250;-1.118;2023-01-05T04:58:52;4.55;;;3.72;;
70667;SDS011;58242;51.250;-1.118;2023-01-05T05:01:17;5.68;;;3.35;;
70667;SDS011;58242;51.250;-1.118;2023-01-05T05:03:42;5.53;;;3.78;;
70667;SDS011;58242;51.250;-1.118;2023-01-05T05:06:08;5.47;;;3.65;;
70667;SDS011;58242;51.250;-1.118;2023-01-05T05:08:33;5.78;;;3.65;;
70667;SDS011;58242;51.250;-1.118;2023-01-05T05:10:58;4.78;;;3.33;;
70667;SDS011;58242;51.250;-1.118;2023-01-05T05:13:24;4.93;;;3.45;;
70667;SDS011;58242;51.250;-1.118;2023-01-05T05:15:50;6.13;;;3.40;;
70667;SDS011;58242;51.250;-1.118;2023-01-05T05:18:15;5.40;;;3.63;;
70667;SDS011;58242;51.250;-1.118;2023-01-05T05:20:41;5.63;;;3.30;;
70667;SDS011;58242;51.250;-1.118;2023-01-05T05:23:08;3.75;;;2.65;;
70667;SDS011;58242;51.250;-1.118;2023-01-05T05:25:33;5.80;;;3.20;;
70667;SDS011;58242;51.250;-1.118;2023-01-05T05:27:59;5.38;;;3.25;;
70667;SDS011;58242;51.250;-1.118;2023-01-05T05:30:24;3.03;;;2.83;;
70667;SDS011;58242;51.250;-1.118;2023-01-05T05:32:49;5.43;;;3.85;;
70667;SDS011;58242;51.250;-1.118;2023-01-05T05:35:15;5.35;;;3.95;;
70667;SDS011;58242;51.250;-1.118;2023-01-05T05:37:40;10.73;;;5.47;;
70667;SDS011;58242;51.250;-1.118;2023-01-05T05:40:05;9.13;;;4.13;;
70667;SDS011;58242;51.250;-1.118;2023-01-05T05:42:31;13.48;;;4.35;;
70667;SDS011;58242;51.250;-1.118;2023-01-05T05:44:57;7.28;;;4.38;;
70667;SDS011;58242;51.250;-1.118;2023-01-05T05:47:22;4.18;;;3.15;;
70667;SDS011;58242;51.250;-1.118;2023-01-05T05:49:47;4.97;;;3.60;;
70667;SDS011;58242;51.250;-1.118;2023-01-05T05:52:12;8.70;;;4.03;;
70667;SDS011;58242;51.250;-1.118;2023-01-05T05:54:38;6.25;;;3.97;;
70667;SDS011;58242;51.250;-1.118;2023-01-05T05:57:03;6.15;;;4.38;;
70667;SDS011;58242;51.250;-1.118;2023-01-05T05:59:28;10.30;;;4.93;;
70667;SDS011;58242;51.250;-1.118;2023-01-05T06:01:54;6.47;;;4.30;;
70667;SDS011;58242;51.250;-1.118;2023-01-05T06:04:19;9.02;;;4.57;;
70667;SDS011;58242;51.250;-1.118;2023-01-05T06:06:44;10.88;;;5.13;;
70667;SDS011;58242;51.250;-1.118;2023-01-05T06:09:10;8.27;;;5.18;;
70667;SDS011;58242;51.250;-1.118;2023-01-05T06:11:35;11.68;;;5.20;;
70667;SDS011;58242;51.250;-1.118;2023-01-05T06:14:00;5.40;;;4.20;;
70667;SDS011;58242;51.250;-1.118;2023-01-05T06:16:27;9.50;;;5.00;;
70667;SDS011;58242;51.250;-1.118;2023-01-05T06:18:52;10.48;;;5.40;;
70667;SDS011;58242;51.250;-1.118;2023-01-05T06:21:17;13.18;;;5.75;;
70667;SDS011;58242;51.250;-1.118;2023-01-05T06:23:45;9.15;;;5.97;;
70667;SDS011;58242;51.250;-1.118;2023-01-05T06:26:10;9.30;;;5.72;;
70667;SDS011;58242;51.250;-1.118;2023-01-05T06:28:36;10.98;;;5.75;;
70667;SDS011;58242;51.250;-1.118;2023-01-05T06:31:01;13.38;;;5.93;;
70667;SDS011;58242;51.250;-1.118;2023-01-05T06:33:26;13.60;;;6.72;;
70667;SDS011;58242;51.250;-1.118;2023-01-05T06:35:51;12.68;;;6.93;;
70667;SDS011;58242;51.250;-1.118;2023-01-05T06:38:17;12.55;;;6.65;;
70667;SDS011;58242;51.250;-1.118;2023-01-05T06:40:44;12.75;;;6.78;;
70667;SDS011;58242;51.250;-1.118;2023-01-05T06:43:10;13.27;;;6.22;;
70667;SDS011;58242;51.250;-1.118;2023-01-05T06:45:36;13.63;;;6.55;;
70667;SDS011;58242;51.250;-1.118;2023-01-05T06:48:02;7.50;;;5.40;;
70667;SDS011;58242;51.250;-1.118;2023-01-05T06:50:28;10.45;;;6.05;;
70667;SDS011;58242;51.250;-1.118;2023-01-05T06:52:54;7.55;;;5.00;;
70667;SDS011;58242;51.250;-1.118;2023-01-05T06:55:20;6.80;;;4.82;;
70667;SDS011;58242;51.250;-1.118;2023-01-05T06:57:46;6.00;;;4.90;;
70667;SDS011;58242;51.250;-1.118;2023-01-05T07:00:11;9.38;;;5.72;;
70667;SDS011;58242;51.250;-1.118;2023-01-05T07:02:37;7.45;;;4.70;;
70667;SDS011;58242;51.250;-1.118;2023-01-05T07:05:03;9.57;;;5.57;;
70667;SDS011;58242;51.250;-1.118;2023-01-05T07:07:28;9.10;;;5.72;;
70667;SDS011;58242;51.250;-1.118;2023-01-05T07:09:53;8.55;;;5.20;;
70667;SDS011;58242;51.250;-1.118;2023-01-05T07:12:19;7.00;;;4.68;;
70667;SDS011;58242;51.250;-1.118;2023-01-05T07:14:45;12.90;;;6.13;;
70667;SDS011;58242;51.250;-1.118;2023-01-05T07:17:10;8.40;;;5.25;;
70667;SDS011;58242;51.250;-1.118;2023-01-05T07:19:36;8.95;;;5.47;;
70667;SDS011;58242;51.250;-1.118;2023-01-05T07:22:02;6.53;;;4.82;;
70667;SDS011;58242;51.250;-1.118;2023-01-05T07:24:28;4.82;;;4.43;;
70667;SDS011;58242;51.250;-1.118;2023-01-05T07:26:53;5.60;;;4.40;;
70667;SDS011;58242;51.250;-1.118;2023-01-05T07:29:18;7.80;;;5.47;;
70667;SDS011;58242;51.250;-1.118;2023-01-05T07:31:43;11.30;;;5.35;;
70667;SDS011;58242;51.250;-1.118;2023-01-05T07:34:11;8.63;;;4.78;;
70667;SDS011;58242;51.250;-1.118;2023-01-05T07:36:37;7.63;;;4.40;;
70667;SDS011;58242;51.250;-1.118;2023-01-05T07:39:02;5.88;;;4.45;;
70667;SDS011;58242;51.250;-1.118;2023-01-05T07:41:28;8.73;;;4.88;;
70667;SDS011;58242;51.250;-1.118;2023-01-05T07:43:53;10.45;;;5.32;;
70667;SDS011;58242;51.250;-1.118;2023-01-05T07:46:18;10.40;;;5.10;;
70667;SDS011;58242;51.250;-1.118;2023-01-05T07:48:44;4.22;;;3.83;;
70667;SDS011;58242;51.250;-1.118;2023-01-05T07:51:09;8.35;;;4.75;;
70667;SDS011;58242;51.250;-1.118;2023-01-05T07:53:35;8.80;;;4.55;;
70667;SDS011;58242;51.250;-1.118;2023-01-05T07:56:02;5.88;;;4.70;;
70667;SDS011;58242;51.250;-1.118;2023-01-05T07:58:28;8.73;;;5.03;;
70667;SDS011;58242;51.250;-1.118;2023-01-05T08:00:54;7.25;;;4.72;;
70667;SDS011;58242;51.250;-1.118;2023-01-05T08:03:20;4.13;;;3.78;;
70667;SDS011;58242;51.250;-1.118;2023-01-05T08:05:46;5.07;;;4.28;;
70667;SDS011;58242;51.250;-1.118;2023-01-05T08:08:12;7.30;;;4.45;;
70667;SDS011;58242;51.250;-1.118;2023-01-05T08:10:38;8.35;;;4.80;;
70667;SDS011;58242;51.250;-1.118;2023-01-05T08:13:05;5.97;;;4.03;;
70667;SDS011;58242;51.250;-1.118;2023-01-05T08:15:53;6.40;;;4.40;;
70667;SDS011;58242;51.250;-1.118;2023-01-05T08:18:20;7.90;;;4.50;;
70667;SDS011;58242;51.250;-1.118;2023-01-05T08:20:52;8.13;;;5.15;;
70667;SDS011;58242;51.250;-1.118;2023-01-05T08:23:23;6.50;;;4.60;;
70667;SDS011;58242;51.250;-1.118;2023-01-05T08:25:49;8.93;;;5.20;;
70667;SDS011;58242;51.250;-1.118;2023-01-05T08:28:14;4.22;;;3.90;;
70667;SDS011;58242;51.250;-1.118;2023-01-05T08:30:40;7.30;;;4.80;;
70667;SDS011;58242;51.250;-1.118;2023-01-05T08:33:05;7.50;;;4.43;;
70667;SDS011;58242;51.250;-1.118;2023-01-05T08:35:31;4.90;;;4.03;;
70667;SDS011;58242;51.250;-1.118;2023-01-05T08:37:56;5.95;;;3.92;;
70667;SDS011;58242;51.250;-1.118;2023-01-05T08:40:21;6.75;;;3.95;;
70667;SDS011;58242;51.250;-1.118;2023-01-05T08:42:47;8.93;;;4.50;;
70667;SDS011;58242;51.250;-1.118;2023-01-05T08:45:13;5.55;;;4.38;;
70667;SDS011;58242;51.250;-1.118;2023-01-05T08:47:40;7.05;;;4.15;;
70667;SDS011;58242;51.250;-1.118;2023-01-05T08:50:05;5.95;;;4.15;;
70667;SDS011;58242;51.250;-1.118;2023-01-05T08:52:33;6.28;;;4.50;;
70667;SDS011;58242;51.250;-1.118;2023-01-05T08:54:59;7.13;;;4.75;;
70667;SDS011;58242;51.250;-1.118;2023-01-05T08:57:24;5.80;;;3.88;;
70667;SDS011;58242;51.250;-1.118;2023-01-05T08:59:49;6.78;;;4.10;;
70667;SDS011;58242;51.250;-1.118;2023-01-05T09:02:15;4.00;;;3.70;;
70667;SDS011;58242;51.250;-1.118;2023-01-05T09:04:40;4.78;;;4.32;;
70667;SDS011;58242;51.250;-1.118;2023-01-05T09:07:05;4.38;;;3.83;;
70667;SDS011;58242;51.250;-1.118;2023-01-05T09:09:30;3.83;;;3.63;;
70667;SDS011;58242;51.250;-1.118;2023-01-05T09:11:56;4.07;;;3.63;;
70667;SDS011;58242;51.250;-1.118;2023-01-05T09:14:21;3.75;;;3.55;;
70667;SDS011;58242;51.250;-1.118;2023-01-05T09:16:46;3.88;;;3.58;;
70667;SDS011;58242;51.250;-1.118;2023-01-05T09:19:12;4.20;;;3.90;;
70667;SDS011;58242;51.250;-1.118;2023-01-05T09:21:37;4.85;;;3.58;;
70667;SDS011;58242;51.250;-1.118;2023-01-05T09:24:03;4.03;;;3.78;;
70667;SDS011;58242;51.250;-1.118;2023-01-05T09:26:31;3.88;;;3.58;;
70667;SDS011;58242;51.250;-1.118;2023-01-05T09:28:57;3.08;;;2.95;;
70667;SDS011;58242;51.250;-1.118;2023-01-05T09:31:22;3.95;;;3.65;;
70667;SDS011;58242;51.250;-1.118;2023-01-05T09:33:47;3.53;;;3.22;;
70667;SDS011;58242;51.250;-1.118;2023-01-05T09:36:14;3.92;;;3.72;;
70667;SDS011;58242;51.250;-1.118;2023-01-05T09:38:40;3.55;;;3.45;;
70667;SDS011;58242;51.250;-1.118;2023-01-05T09:41:15;3.08;;;2.88;;
70667;SDS011;58242;51.250;-1.118;2023-01-05T09:43:46;3.17;;;3.05;;
70667;SDS011;58242;51.250;-1.118;2023-01-05T09:46:15;3.47;;;3.28;;
70667;SDS011;58242;51.250;-1.118;2023-01-05T09:48:44;3.10;;;2.90;;
70667;SDS011;58242;51.250;-1.118;2023-01-05T09:51:13;3.13;;;2.83;;
70667;SDS011;58242;51.250;-1.118;2023-01-05T09:53:38;2.92;;;2.78;;
70667;SDS011;58242;51.250;-1.118;2023-01-05T09:56:05;3.08;;;2.97;;
70667;SDS011;58242;51.250;-1.118;2023-01-05T09:58:39;3.70;;;3.50;;
70667;SDS011;58242;51.250;-1.118;2023-01-05T10:01:14;3.15;;;2.95;;
70667;SDS011;58242;51.250;-1.118;2023-01-05T10:03:54;3.50;;;3.22;;
70667;SDS011;58242;51.250;-1.118;2023-01-05T10:06:24;3.90;;;3.40;;
70667;SDS011;58242;51.250;-1.118;2023-01-05T10:08:52;3.53;;;3.35;;
70667;SDS011;58242;51.250;-1.118;2023-01-05T10:11:21;3.22;;;3.03;;
70667;SDS011;58242;51.250;-1.118;2023-01-05T10:14:21;2.80;;;2.70;;
70667;SDS011;58242;51.250;-1.118;2023-01-05T10:16:53;3.60;;;3.30;;
70667;SDS011;58242;51.250;-1.118;2023-01-05T10:19:18;3.40;;;2.95;;
70667;SDS011;58242;51.250;-1.118;2023-01-05T10:27:19;3.83;;;3.63;;
70667;SDS011;58242;51.250;-1.118;2023-01-05T10:29:52;3.58;;;3.17;;
70667;SDS011;58242;51.250;-1.118;2023-01-05T10:38:09;4.43;;;3.58;;
70667;SDS011;58242;51.250;-1.118;2023-01-05T10:44:02;4.60;;;3.80;;
70667;SDS011;58242;51.250;-1.118;2023-01-05T10:46:29;3.67;;;3.38;;
70667;SDS011;58242;51.250;-1.118;2023-01-05T10:48:55;3.40;;;3.20;;
70667;SDS011;58242;51.250;-1.118;2023-01-05T10:51:21;4.88;;;3.67;;
70667;SDS011;58242;51.250;-1.118;2023-01-05T10:53:46;4.25;;;3.75;;
70667;SDS011;58242;51.250;-1.118;2023-01-05T10:56:13;5.50;;;3.60;;
70667;SDS011;58242;51.250;-1.118;2023-01-05T10:58:41;5.93;;;4.13;;
70667;SDS011;58242;51.250;-1.118;2023-01-05T11:01:24;4.35;;;3.88;;
70667;SDS011;58242;51.250;-1.118;2023-01-05T11:04:03;3.83;;;3.10;;
70667;SDS011;58242;51.250;-1.118;2023-01-05T11:06:32;4.70;;;3.28;;
70667;SDS011;58242;51.250;-1.118;2023-01-05T11:09:14;6.10;;;3.55;;
70667;SDS011;58242;51.250;-1.118;2023-01-05T11:11:42;4.93;;;3.33;;
70667;SDS011;58242;51.250;-1.118;2023-01-05T11:14:16;4.45;;;3.22;;
70667;SDS011;58242;51.250;-1.118;2023-01-05T11:16:45;3.75;;;3.08;;
70667;SDS011;58242;51.250;-1.118;2023-01-05T11:19:15;3.83;;;2.83;;
70667;SDS011;58242;51.250;-1.118;2023-01-05T11:21:43;4.72;;;3.47;;
70667;SDS011;58242;51.250;-1.118;2023-01-05T11:24:24;4.28;;;3.47;;
70667;SDS011;58242;51.250;-1.118;2023-01-05T11:27:00;5.43;;;3.95;;
70667;SDS011;58242;51.250;-1.118;2023-01-05T11:29:29;5.43;;;3.25;;
70667;SDS011;58242;51.250;-1.118;2023-01-05T11:32:02;5.60;;;4.00;;
70667;SDS011;58242;51.250;-1.118;2023-01-05T11:36:58;7.00;;;4.93;;
70667;SDS011;58242;51.250;-1.118;2023-01-05T11:42:04;9.70;;;4.85;;
70667;SDS011;58242;51.250;-1.118;2023-01-05T11:44:31;5.10;;;4.38;;
70667;SDS011;58242;51.250;-1.118;2023-01-05T11:46:58;4.95;;;3.58;;
70667;SDS011;58242;51.250;-1.118;2023-01-05T11:49:23;4.53;;;3.90;;
70667;SDS011;58242;51.250;-1.118;2023-01-05T11:51:48;4.22;;;3.20;;
70667;SDS011;58242;51.250;-1.118;2023-01-05T11:54:47;5.55;;;3.60;;
70667;SDS011;58242;51.250;-1.118;2023-01-05T11:59:36;6.40;;;3.72;;
70667;SDS011;58242;51.250;-1.118;2023-01-05T12:04:52;7.93;;;3.88;;
70667;SDS011;58242;51.250;-1.118;2023-01-05T12:07:33;6.38;;;3.78;;
70667;SDS011;58242;51.250;-1.118;2023-01-05T12:12:53;5.32;;;3.67;;
70667;SDS011;58242;51.250;-1.118;2023-01-05T12:18:05;7.53;;;3.97;;
70667;SDS011;58242;51.250;-1.118;2023-01-05T12:23:30;9.52;;;3.75;;
70667;SDS011;58242;51.250;-1.118;2023-01-05T12:28:55;9.00;;;3.70;;
70667;SDS011;58242;51.250;-1.118;2023-01-05T12:37:23;7.00;;;4.07;;
70667;SDS011;58242;51.250;-1.118;2023-01-05T12:39:55;10.70;;;5.50;;
70667;SDS011;58242;51.250;-1.118;2023-01-05T12:47:50;19.05;;;6.85;;
70667;SDS011;58242;51.250;-1.118;2023-01-05T12:56:01;11.32;;;6.00;;
70667;SDS011;58242;51.250;-1.118;2023-01-05T12:58:42;12.43;;;5.70;;
70667;SDS011;58242;51.250;-1.118;2023-01-05T13:01:19;9.32;;;5.40;;
70667;SDS011;58242;51.250;-1.118;2023-01-05T13:03:48;11.98;;;5.75;;
70667;SDS011;58242;51.250;-1.118;2023-01-05T13:06:20;9.20;;;4.22;;
70667;SDS011;58242;51.250;-1.118;2023-01-05T13:08:54;11.98;;;5.40;;
70667;SDS011;58242;51.250;-1.118;2023-01-05T13:11:26;10.75;;;5.30;;
70667;SDS011;58242;51.250;-1.118;2023-01-05T13:16:51;7.47;;;3.83;;
70667;SDS011;58242;51.250;-1.118;2023-01-05T13:19:30;6.57;;;3.33;;
70667;SDS011;58242;51.250;-1.118;2023-01-05T13:22:01;9.38;;;4.70;;
70667;SDS011;58242;51.250;-1.118;2023-01-05T13:24:34;13.85;;;5.25;;
70667;SDS011;58242;51.250;-1.118;2023-01-05T13:27:03;14.00;;;4.50;;
70667;SDS011;58242;51.250;-1.118;2023-01-05T13:29:30;8.73;;;4.28;;
70667;SDS011;58242;51.250;-1.118;2023-01-05T13:32:05;8.10;;;4.07;;
70667;SDS011;58242;51.250;-1.118;2023-01-05T13:48:39;9.90;;;5.38;;
70667;SDS011;58242;51.250;-1.118;2023-01-05T13:54:54;7.35;;;3.95;;
70667;SDS011;58242;51.250;-1.118;2023-01-05T13:57:15;8.15;;;4.82;;
70667;SDS011;58242;51.250;-1.118;2023-01-05T13:59:47;14.75;;;5.53;;
70667;SDS011;58242;51.250;-1.118;2023-01-05T14:02:35;9.57;;;6.10;;
70667;SDS011;58242;51.250;-1.118;2023-01-05T14:05:15;8.95;;;6.03;;
70667;SDS011;58242;51.250;-1.118;2023-01-05T14:07:48;7.65;;;4.93;;
70667;SDS011;58242;51.250;-1.118;2023-01-05T14:10:19;7.53;;;4.38;;
70667;SDS011;58242;51.250;-1.118;2023-01-05T14:12:48;5.93;;;4.85;;
70667;SDS011;58242;51.250;-1.118;2023-01-05T14:17:56;4.45;;;4.05;;
70667;SDS011;58242;51.250;-1.118;2023-01-05T14:20:29;5.53;;;3.60;;
70667;SDS011;58242;51.250;-1.118;2023-01-05T14:22:57;8.93;;;4.43;;
70667;SDS011;58242;51.250;-1.118;2023-01-05T14:33:52;6.40;;;3.85;;
70667;SDS011;58242;51.250;-1.118;2023-01-05T14:39:18;7.43;;;4.35;;
70667;SDS011;58242;51.250;-1.118;2023-01-05T14:44:41;7.28;;;4.63;;
70667;SDS011;58242;51.250;-1.118;2023-01-05T14:47:10;4.72;;;3.90;;
70667;SDS011;58242;51.250;-1.118;2023-01-05T14:49:41;9.98;;;4.10;;
70667;SDS011;58242;51.250;-1.118;2023-01-05T14:52:16;6.00;;;4.07;;
70667;SDS011;58242;51.250;-1.118;2023-01-05T15:00:00;10.35;;;4.90;;
70667;SDS011;58242;51.250;-1.118;2023-01-05T15:02:36;5.45;;;4.40;;
70667;SDS011;58242;51.250;-1.118;2023-01-05T15:05:11;6.50;;;5.03;;
70667;SDS011;58242;51.250;-1.118;2023-01-05T15:24:17;6.63;;;5.03;;
70667;SDS011;58242;51.250;-1.118;2023-01-05T15:26:49;7.85;;;4.80;;
70667;SDS011;58242;51.250;-1.118;2023-01-05T15:32:18;5.30;;;4.90;;
70667;SDS011;58242;51.250;-1.118;2023-01-05T15:37:35;4.20;;;3.88;;
70667;SDS011;58242;51.250;-1.118;2023-01-05T15:40:04;5.95;;;3.88;;
70667;SDS011;58242;51.250;-1.118;2023-01-05T15:42:40;5.40;;;4.25;;
70667;SDS011;58242;51.250;-1.118;2023-01-05T15:45:16;5.25;;;4.15;;
70667;SDS011;58242;51.250;-1.118;2023-01-05T15:47:43;4.95;;;4.45;;
70667;SDS011;58242;51.250;-1.118;2023-01-05T15:50:18;4.85;;;4.50;;
70667;SDS011;58242;51.250;-1.118;2023-01-05T15:52:56;5.80;;;5.30;;
70667;SDS011;58242;51.250;-1.118;2023-01-05T15:55:24;5.55;;;5.05;;
70667;SDS011;58242;51.250;-1.118;2023-01-05T15:57:52;5.07;;;4.60;;
70667;SDS011;58242;51.250;-1.118;2023-01-05T16:00:24;4.57;;;4.35;;
70667;SDS011;58242;51.250;-1.118;2023-01-05T16:02:52;4.07;;;3.88;;
70667;SDS011;58242;51.250;-1.118;2023-01-05T16:07:57;6.47;;;4.40;;
70667;SDS011;58242;51.250;-1.118;2023-01-05T16:10:27;5.82;;;4.10;;
70667;SDS011;58242;51.250;-1.118;2023-01-05T16:13:05;7.25;;;4.43;;
70667;SDS011;58242;51.250;-1.118;2023-01-05T16:15:36;6.43;;;4.53;;
70667;SDS011;58242;51.250;-1.118;2023-01-05T16:18:02;4.47;;;3.95;;
70667;SDS011;58242;51.250;-1.118;2023-01-05T16:20:30;3.87;;;3.37;;
70667;SDS011;58242;51.250;-1.118;2023-01-05T16:25:28;3.88;;;3.50;;
70667;SDS011;58242;51.250;-1.118;2023-01-05T16:27:58;4.80;;;4.40;;
70667;SDS011;58242;51.250;-1.118;2023-01-05T16:33:02;3.95;;;3.72;;
70667;SDS011;58242;51.250;-1.118;2023-01-05T16:45:45;4.47;;;3.72;;
70667;SDS011;58242;51.250;-1.118;2023-01-05T16:51:06;5.50;;;3.75;;
70667;SDS011;58242;51.250;-1.118;2023-01-05T16:53:33;4.72;;;4.32;;
70667;SDS011;58242;51.250;-1.118;2023-01-05T16:56:09;5.90;;;3.85;;
70667;SDS011;58242;51.250;-1.118;2023-01-05T16:58:57;3.83;;;3.42;;
70667;SDS011;58242;51.250;-1.118;2023-01-05T17:01:34;5.55;;;4.20;;
70667;SDS011;58242;51.250;-1.118;2023-01-05T17:04:11;3.50;;;3.20;;
70667;SDS011;58242;51.250;-1.118;2023-01-05T17:06:38;4.50;;;3.03;;
70667;SDS011;58242;51.250;-1.118;2023-01-05T17:11:51;5.10;;;3.50;;
70667;SDS011;58242;51.250;-1.118;2023-01-05T17:14:17;6.38;;;3.85;;
70667;SDS011;58242;51.250;-1.118;2023-01-05T17:16:44;3.53;;;3.25;;
70667;SDS011;58242;51.250;-1.118;2023-01-05T17:19:14;5.40;;;3.47;;
70667;SDS011;58242;51.250;-1.118;2023-01-05T17:21:41;3.17;;;2.97;;